Terminal Aerodrome Forecast
Issued by NWS

Home | Current Version | Previous Version | Text Only | Print | Product List | Glossary On
Versions: 1 2 3 4 5 6 7 8 9 10 11 12 13 14 15 16 17 18 19 20
000
FTUS43 KILX 301500 AAF
TAFDEC
TAF AMD
KDEC 301516Z 3015/0112 06010KT P6SM OVC006
      TEMPO 3015/3017 5SM BR OVC010
     FM301700 05009KT P6SM BKN020
     FM301900 07006KT P6SM SCT020=

USA.gov is the U.S. government's official web portal to all federal, state and local government web resources and services.